Carmel Valley, CA

6:02 AM PST on February 28, 2015 (GMT -0800)
Salinas Municipal | Change Station
CLOSE
Current Station
Airport
Location: Salinas,
Elevation: 85 ft
Nearby Weather Stations

Elev 85 ft 36.66 °N, 121.61 °W | Updated 9 minutes ago

Mostly Cloudy
Mostly Cloudy
52 °F
Feels Like 52 °F
N
0
Wind Variable Wind from North

Today
High -- | Low -- °F
--% Chance of Precip.
Yesterday
High -- | Low -- °F
Precip. -- in
6:38 AM 6:00 PM
Waxing Gibbous, 77% visible
Pressure 29.80 in
Visibility 10.0 miles
Clouds Scattered Clouds 2100 ft
Mostly Cloudy 2800 ft
Overcast 10000 ft
Dew Point 47 °F
Humidity 83%
Rainfall 0.00 in
Snow Depth Not available.
UV 0 out of 12
Pollen 7.20 out of 12
Air Quality Not available.
Flu Activity Not available.
METAR KSNS 281353Z AUTO 00000KT 10SM SCT021 BKN028 OVC100 11/08 A2977 RMK AO2 RAE1258B23E38 SLP091 P0000 T01110083 TSNO $

More Conditions Fewer Conditions

Pressure 29.80 in
Visibility 10.0 miles
Clouds Scattered Clouds 2100 ft
Mostly Cloudy 2800 ft
Overcast 10000 ft
Dew Point 47 °F
Humidity 83%
Rainfall 0.00 in
Snow Depth Not available.
UV 0 out of 12
Pollen 7.20 out of 12
Air Quality Not available.
Flu Activity Not available.
METAR KSNS 281353Z AUTO 00000KT 10SM SCT021 BKN028 OVC100 11/08 A2977 RMK AO2 RAE1258B23E38 SLP091 P0000 T01110083 TSNO $

More Conditions Fewer Conditions

10-Day Weather Forecast

Almanac

Astronomy

Feb. 28, 2015 Rise Set
Actual Time
Civil Twilight
Nautical Twilight
Astronomical Twilight
Moon
Length of Visible Light
Length of Day
Tomorrow will be .
, % of the Moon is Illuminated

Today's Extremes

State Highs State Lows

Community

WunderPhotos

Upload Photos

1,801,020 photos uploaded!

WunderBlogs® & News

Nearby

Air Quality

  Air Quality AQ Index Pollutant
Not available.

Snow Depth

Station Depth Elevation

Earthquake Activity

City Distance Mag. Time & Date
Minimum magnitude displayed is 2.5.

Coastal Water Temperatures

Place Temperature

Nearby Weather Stations